Time;durP1;ratioP1;P1;durP2;ratioP2;P2;SDS_P1;SDS_P2;PMS_P1;PMS_P2;Temp;Humidity;BMP_temperature;BMP_pressure;BME280_temperature;BME280_humidity;BME280_pressure;Samples;Min_cycle;Max_cycle;Signal;HPM_P1;HPM_P2
2021/09/13 00:01:02;;;;;;;6.38;4.50;;;;;;;;;;5012567;28;20050;-68
2021/09/13 00:03:29;;;;;;;7.43;4.55;;;;;;;;;;5012321;28;20050;-67
2021/09/13 00:05:56;;;;;;;5.72;4.05;;;;;;;;;;5012406;28;20104;-68
2021/09/13 00:08:23;;;;;;;6.55;3.72;;;;;;;;;;5012144;28;20042;-68
2021/09/13 00:10:49;;;;;;;5.65;3.80;;;;;;;;;;5012433;28;20049;-67
2021/09/13 00:13:16;;;;;;;4.45;4.05;;;;;;;;;;5012285;28;20100;-67
2021/09/13 00:15:43;;;;;;;6.00;4.45;;;;;;;;;;5012328;28;20053;-64
2021/09/13 00:18:09;;;;;;;5.20;4.70;;;;;;;;;;5012112;28;20050;-65
2021/09/13 00:20:39;;;;;;;5.05;3.70;;;;;;;;;;5012220;28;20049;-66
2021/09/13 00:23:06;;;;;;;4.90;4.10;;;;;;;;;;5012259;28;20069;-66
2021/09/13 00:25:34;;;;;;;4.10;3.58;;;;;;;;;;5012201;28;20058;-65
2021/09/13 00:28:00;;;;;;;5.28;4.10;;;;;;;;;;5012162;28;20460;-66
2021/09/13 00:30:27;;;;;;;5.75;4.63;;;;;;;;;;5012200;28;20049;-65
2021/09/13 00:32:54;;;;;;;5.63;4.68;;;;;;;;;;5011881;28;20046;-65
2021/09/13 00:35:20;;;;;;;5.38;4.88;;;;;;;;;;5012179;28;20050;-65
2021/09/13 00:37:47;;;;;;;4.10;3.72;;;;;;;;;;5011810;28;20050;-66
2021/09/13 00:40:14;;;;;;;5.65;3.90;;;;;;;;;;5012091;28;20060;-65
2021/09/13 00:42:41;;;;;;;6.97;4.75;;;;;;;;;;5011762;28;20058;-65
2021/09/13 00:45:08;;;;;;;4.82;3.95;;;;;;;;;;5012046;28;20054;-65
2021/09/13 00:47:36;;;;;;;5.20;4.10;;;;;;;;;;5011797;28;20045;-65
2021/09/13 00:50:03;;;;;;;5.55;4.13;;;;;;;;;;5011886;28;20053;-65
2021/09/13 00:52:29;;;;;;;6.40;5.00;;;;;;;;;;5011137;28;20108;-65
2021/09/13 00:54:58;;;;;;;4.80;4.40;;;;;;;;;;5005178;28;20053;-65
2021/09/13 00:57:25;;;;;;;4.63;3.97;;;;;;;;;;5031181;28;20046;-66
2021/09/13 00:59:51;;;;;;;4.97;4.38;;;;;;;;;;5015817;28;20104;-66
2021/09/13 01:02:18;;;;;;;4.75;3.90;;;;;;;;;;5015854;28;20053;-66
2021/09/13 01:04:45;;;;;;;4.53;4.05;;;;;;;;;;5015785;28;20050;-66
2021/09/13 01:07:12;;;;;;;6.43;4.20;;;;;;;;;;5014130;28;20469;-66
2021/09/13 01:09:39;;;;;;;6.00;3.97;;;;;;;;;;4996501;28;20242;-66
2021/09/13 01:12:06;;;;;;;4.95;4.38;;;;;;;;;;4996178;28;20046;-66
2021/09/13 01:14:40;;;;;;;4.90;4.05;;;;;;;;;;4996107;28;20051;-65
2021/09/13 01:17:08;;;;;;;5.07;4.35;;;;;;;;;;4996084;28;20106;-65
2021/09/13 01:19:34;;;;;;;4.65;4.25;;;;;;;;;;4996081;28;20054;-66
2021/09/13 01:22:02;;;;;;;4.55;4.15;;;;;;;;;;4995810;28;20100;-66
2021/09/13 01:24:31;;;;;;;5.88;4.43;;;;;;;;;;5008904;28;20100;-65
2021/09/13 01:27:02;;;;;;;7.70;4.47;;;;;;;;;;5015107;28;20501;-66
2021/09/13 01:29:29;;;;;;;5.22;4.22;;;;;;;;;;5030436;28;20058;-65
2021/09/13 01:31:56;;;;;;;5.13;4.55;;;;;;;;;;5014863;28;20497;-65
2021/09/13 01:34:23;;;;;;;4.85;4.32;;;;;;;;;;5015346;28;20108;-65
2021/09/13 01:36:50;;;;;;;6.00;4.60;;;;;;;;;;5015002;28;20502;-65
2021/09/13 01:39:18;;;;;;;5.50;4.15;;;;;;;;;;5015277;28;20053;-65
2021/09/13 01:41:45;;;;;;;7.05;4.57;;;;;;;;;;5014331;28;20489;-65
2021/09/13 01:44:12;;;;;;;5.15;4.65;;;;;;;;;;5015072;28;20423;-65
2021/09/13 01:46:39;;;;;;;4.53;4.13;;;;;;;;;;5014916;28;20100;-65
2021/09/13 01:49:07;;;;;;;6.78;4.90;;;;;;;;;;5014909;28;20145;-65
2021/09/13 01:51:34;;;;;;;5.00;4.50;;;;;;;;;;5015000;28;20269;-65
2021/09/13 01:54:01;;;;;;;7.10;5.05;;;;;;;;;;5014630;28;20100;-65
2021/09/13 01:56:28;;;;;;;7.60;4.25;;;;;;;;;;5014842;28;20050;-65
2021/09/13 01:58:55;;;;;;;5.95;4.38;;;;;;;;;;5014634;28;20092;-65
2021/09/13 02:01:21;;;;;;;6.10;4.78;;;;;;;;;;5014784;28;20049;-65
2021/09/13 02:03:48;;;;;;;7.05;4.30;;;;;;;;;;5014429;28;20073;-65
2021/09/13 02:06:16;;;;;;;5.13;4.55;;;;;;;;;;5014430;28;20052;-65
2021/09/13 02:08:43;;;;;;;5.60;5.00;;;;;;;;;;5014623;28;20050;-65
2021/09/13 02:11:10;;;;;;;7.22;4.78;;;;;;;;;;5014684;28;20058;-65
2021/09/13 02:13:37;;;;;;;7.10;4.93;;;;;;;;;;5014325;28;20104;-65
2021/09/13 02:16:04;;;;;;;6.72;4.90;;;;;;;;;;5014744;28;20444;-65
2021/09/13 02:18:31;;;;;;;5.20;4.70;;;;;;;;;;5014555;28;20050;-65
2021/09/13 02:20:58;;;;;;;6.32;4.82;;;;;;;;;;5014529;28;20046;-65
2021/09/13 02:23:25;;;;;;;5.20;4.25;;;;;;;;;;5014512;28;20116;-65
2021/09/13 02:25:51;;;;;;;8.63;4.50;;;;;;;;;;5014231;28;20050;-65
2021/09/13 02:28:18;;;;;;;5.95;4.57;;;;;;;;;;5014093;28;20049;-65
2021/09/13 02:30:45;;;;;;;5.38;4.28;;;;;;;;;;5003674;28;20050;-65
2021/09/13 02:33:11;;;;;;;4.75;4.22;;;;;;;;;;4994261;28;20054;-65
2021/09/13 02:35:38;;;;;;;5.88;4.68;;;;;;;;;;4994592;28;20121;-65
2021/09/13 02:38:05;;;;;;;5.38;4.40;;;;;;;;;;4994434;28;20058;-65
2021/09/13 02:40:31;;;;;;;5.10;4.07;;;;;;;;;;4994571;28;20050;-65
2021/09/13 02:42:58;;;;;;;5.75;4.78;;;;;;;;;;4994086;28;20109;-65
2021/09/13 02:45:25;;;;;;;6.10;5.32;;;;;;;;;;4994467;28;20108;-65
2021/09/13 02:47:51;;;;;;;13.15;7.57;;;;;;;;;;4994169;28;20461;-65
2021/09/13 02:50:18;;;;;;;7.70;5.47;;;;;;;;;;5000538;28;20475;-65
2021/09/13 02:52:45;;;;;;;5.47;4.97;;;;;;;;;;5013593;28;20050;-65
2021/09/13 02:55:12;;;;;;;6.15;4.97;;;;;;;;;;5013941;28;20058;-65
2021/09/13 02:57:38;;;;;;;6.38;4.90;;;;;;;;;;5013559;28;20046;-65
2021/09/13 03:00:06;;;;;;;5.55;4.90;;;;;;;;;;5009045;28;20050;-65
2021/09/13 03:02:32;;;;;;;5.60;4.53;;;;;;;;;;4993966;28;20050;-65
2021/09/13 03:04:59;;;;;;;5.93;4.88;;;;;;;;;;4993935;28;20050;-65
2021/09/13 03:07:26;;;;;;;5.85;5.22;;;;;;;;;;4993905;28;20046;-65
2021/09/13 03:09:52;;;;;;;5.40;4.88;;;;;;;;;;4998789;28;20046;-65
2021/09/13 03:12:19;;;;;;;8.40;4.85;;;;;;;;;;5013109;28;20493;-65
2021/09/13 03:14:45;;;;;;;5.40;4.90;;;;;;;;;;5013424;28;20049;-65
2021/09/13 03:17:12;;;;;;;7.45;5.65;;;;;;;;;;5012608;28;20054;-65
2021/09/13 03:19:39;;;;;;;5.57;5.00;;;;;;;;;;5013289;28;20050;-65
2021/09/13 03:22:05;;;;;;;5.82;5.30;;;;;;;;;;5013105;28;20108;-65
2021/09/13 03:24:32;;;;;;;5.53;5.03;;;;;;;;;;5013264;28;20054;-65
2021/09/13 03:26:58;;;;;;;8.57;5.43;;;;;;;;;;5012895;28;20084;-65
2021/09/13 03:29:25;;;;;;;6.03;5.05;;;;;;;;;;5013073;28;20085;-65
2021/09/13 03:31:51;;;;;;;5.55;5.05;;;;;;;;;;5012808;28;20049;-65
2021/09/13 03:34:18;;;;;;;6.95;5.53;;;;;;;;;;5013108;28;20053;-65
2021/09/13 03:36:45;;;;;;;5.38;4.80;;;;;;;;;;5012928;28;20100;-65
2021/09/13 03:39:11;;;;;;;5.00;4.57;;;;;;;;;;5013011;28;20050;-65
2021/09/13 03:41:38;;;;;;;6.47;5.10;;;;;;;;;;5013350;28;20457;-65
2021/09/13 03:44:04;;;;;;;5.45;4.95;;;;;;;;;;5012948;28;20108;-65
2021/09/13 03:46:31;;;;;;;6.30;4.95;;;;;;;;;;5012848;28;20054;-65
2021/09/13 03:48:58;;;;;;;5.68;5.15;;;;;;;;;;5011405;28;20050;-65
2021/09/13 03:51:24;;;;;;;6.65;4.47;;;;;;;;;;5012765;28;20049;-65
2021/09/13 03:53:51;;;;;;;8.35;4.68;;;;;;;;;;4997922;28;20505;-65
2021/09/13 03:56:17;;;;;;;5.93;5.35;;;;;;;;;;4992976;28;20050;-65
2021/09/13 03:58:44;;;;;;;5.75;4.40;;;;;;;;;;4993139;28;20097;-65
2021/09/13 04:01:11;;;;;;;5.10;4.40;;;;;;;;;;4992717;28;20066;-65
2021/09/13 04:03:45;;;;;;;4.97;4.35;;;;;;;;;;4992827;28;20116;-65
2021/09/13 04:06:24;;;;;;;10.98;4.40;;;;;;;;;;4993957;28;20048;-65
2021/09/13 04:14:27;;;;;;;4.78;4.28;;;;;;;;;;5008213;28;20551;-65
2021/09/13 04:16:56;;;;;;;7.88;4.32;;;;;;;;;;5007552;28;20080;-65
2021/09/13 04:19:23;;;;;;;4.38;3.97;;;;;;;;;;5004398;28;20046;-65
2021/09/13 04:21:50;;;;;;;6.55;3.95;;;;;;;;;;5007217;28;20054;-65
2021/09/13 04:24:17;;;;;;;4.78;3.92;;;;;;;;;;5012209;28;20185;-65
2021/09/13 04:26:44;;;;;;;5.50;4.78;;;;;;;;;;5005166;28;20081;-65
2021/09/13 04:29:12;;;;;;;7.13;4.90;;;;;;;;;;5010417;28;20049;-65
2021/09/13 04:31:39;;;;;;;4.68;4.28;;;;;;;;;;4992413;28;20046;-65
2021/09/13 04:34:05;;;;;;;5.40;4.85;;;;;;;;;;4992438;28;20057;-65
2021/09/13 04:36:32;;;;;;;5.95;4.82;;;;;;;;;;4992275;28;20058;-65
2021/09/13 04:38:59;;;;;;;7.03;4.85;;;;;;;;;;5006551;28;20567;-65
2021/09/13 04:41:25;;;;;;;6.78;5.13;;;;;;;;;;5012639;28;20080;-65
2021/09/13 04:43:52;;;;;;;6.13;5.53;;;;;;;;;;5025173;28;20081;-65
2021/09/13 04:46:19;;;;;;;5.22;4.72;;;;;;;;;;5025284;28;20058;-66
2021/09/13 04:48:45;;;;;;;7.65;5.15;;;;;;;;;;5025429;28;20464;-65
2021/09/13 04:51:12;;;;;;;4.80;4.35;;;;;;;;;;5025166;28;20053;-65
2021/09/13 04:53:38;;;;;;;7.63;5.32;;;;;;;;;;5025995;28;20050;-66
2021/09/13 04:56:05;;;;;;;6.45;5.18;;;;;;;;;;5029857;28;20054;-65
2021/09/13 04:58:32;;;;;;;6.85;5.03;;;;;;;;;;5014178;28;20100;-68
2021/09/13 05:00:58;;;;;;;6.72;4.72;;;;;;;;;;5001893;28;20564;-68
2021/09/13 05:03:25;;;;;;;10.13;4.97;;;;;;;;;;4991959;28;20057;-68
2021/09/13 05:05:52;;;;;;;5.50;4.70;;;;;;;;;;4992121;28;20461;-68
2021/09/13 05:08:19;;;;;;;6.18;4.57;;;;;;;;;;5000305;28;20104;-68
2021/09/13 05:10:45;;;;;;;5.95;4.70;;;;;;;;;;5011603;28;20054;-68
2021/09/13 05:13:12;;;;;;;7.22;4.38;;;;;;;;;;5019082;28;20153;-68
2021/09/13 05:15:38;;;;;;;10.20;4.90;;;;;;;;;;5024078;28;20390;-67
2021/09/13 05:18:05;;;;;;;7.72;5.05;;;;;;;;;;5020374;28;20045;-68
2021/09/13 05:20:32;;;;;;;9.60;5.18;;;;;;;;;;5004541;28;20105;-68
2021/09/13 05:22:58;;;;;;;7.57;5.18;;;;;;;;;;5002904;28;20105;-66
2021/09/13 05:25:25;;;;;;;8.05;5.45;;;;;;;;;;5018582;28;20054;-68
2021/09/13 05:27:51;;;;;;;4.90;4.50;;;;;;;;;;5006012;28;20050;-66
2021/09/13 05:30:19;;;;;;;6.28;5.20;;;;;;;;;;5022397;28;20081;-66
2021/09/13 05:32:45;;;;;;;11.15;5.32;;;;;;;;;;5021498;28;20057;-66
2021/09/13 05:35:12;;;;;;;6.97;4.95;;;;;;;;;;5022154;28;20101;-67
2021/09/13 05:37:38;;;;;;;7.78;5.00;;;;;;;;;;5021503;28;20073;-66
2021/09/13 05:40:06;;;;;;;7.78;5.00;;;;;;;;;;5002878;28;20399;-66
2021/09/13 05:42:34;;;;;;;10.00;5.22;;;;;;;;;;5003039;28;20112;-66
2021/09/13 05:45:00;;;;;;;10.63;5.78;;;;;;;;;;4992965;28;20488;-67
2021/09/13 05:47:27;;;;;;;10.88;4.85;;;;;;;;;;4993407;28;20062;-67
2021/09/13 05:49:54;;;;;;;6.03;5.20;;;;;;;;;;5011797;28;20042;-67
2021/09/13 05:52:20;;;;;;;7.03;5.53;;;;;;;;;;5012813;28;20065;-66
2021/09/13 05:54:47;;;;;;;7.90;5.35;;;;;;;;;;5012946;28;20080;-67
2021/09/13 05:57:14;;;;;;;6.57;5.00;;;;;;;;;;5012423;28;20049;-67
2021/09/13 05:59:40;;;;;;;7.20;5.20;;;;;;;;;;4995881;28;20054;-66
2021/09/13 06:02:07;;;;;;;8.98;5.53;;;;;;;;;;4992960;28;20498;-66
2021/09/13 06:04:34;;;;;;;11.93;5.22;;;;;;;;;;4993451;28;20057;-66
2021/09/13 06:07:01;;;;;;;9.30;5.43;;;;;;;;;;4993425;28;20580;-67
2021/09/13 06:09:27;;;;;;;7.85;5.45;;;;;;;;;;5022358;28;20460;-65
2021/09/13 06:11:54;;;;;;;8.55;5.18;;;;;;;;;;5012073;28;20049;-60
2021/09/13 06:14:23;;;;;;;8.00;6.00;;;;;;;;;;5004357;28;20054;-60
2021/09/13 06:16:50;;;;;;;9.52;5.45;;;;;;;;;;4994986;28;20069;-60
2021/09/13 06:19:17;;;;;;;6.93;5.68;;;;;;;;;;5012864;28;20049;-61
2021/09/13 06:21:44;;;;;;;6.00;5.40;;;;;;;;;;5013696;28;20050;-62
2021/09/13 06:24:10;;;;;;;6.43;5.43;;;;;;;;;;5012334;28;20050;-61
2021/09/13 06:26:38;;;;;;;6.38;5.30;;;;;;;;;;5012263;28;20050;-66
2021/09/13 06:29:06;;;;;;;7.50;5.35;;;;;;;;;;5012276;28;20623;-63
2021/09/13 06:31:32;;;;;;;6.93;5.00;;;;;;;;;;5011930;28;20128;-63
2021/09/13 06:33:59;;;;;;;6.07;5.15;;;;;;;;;;5012195;28;20115;-63
2021/09/13 06:36:27;;;;;;;8.48;5.60;;;;;;;;;;5011878;28;20101;-62
2021/09/13 06:38:54;;;;;;;6.78;5.55;;;;;;;;;;5013513;28;20053;-66
2021/09/13 06:41:20;;;;;;;7.90;4.68;;;;;;;;;;5012924;28;20558;-63
2021/09/13 06:43:47;;;;;;;7.35;5.50;;;;;;;;;;5013648;28;20077;-63
2021/09/13 06:46:22;;;;;;;6.25;5.22;;;;;;;;;;5014028;28;20464;-63
2021/09/13 06:48:49;;;;;;;6.30;5.38;;;;;;;;;;5013891;28;20133;-62
2021/09/13 06:51:17;;;;;;;8.23;5.43;;;;;;;;;;5006599;28;20123;-62
2021/09/13 06:53:44;;;;;;;5.72;5.13;;;;;;;;;;5007939;28;20502;-63
2021/09/13 06:56:12;;;;;;;7.32;5.28;;;;;;;;;;4994311;28;20058;-62
2021/09/13 06:58:38;;;;;;;7.88;5.53;;;;;;;;;;5009162;28;20104;-62
2021/09/13 07:01:05;;;;;;;9.00;5.88;;;;;;;;;;5008996;28;20050;-62
2021/09/13 07:03:33;;;;;;;6.47;5.68;;;;;;;;;;4993676;28;20050;-63
2021/09/13 07:06:00;;;;;;;7.15;4.90;;;;;;;;;;5008924;28;20142;-62
2021/09/13 07:08:26;;;;;;;6.60;5.35;;;;;;;;;;4993559;28;20046;-62
2021/09/13 07:10:54;;;;;;;7.97;4.97;;;;;;;;;;4993863;28;20494;-62
2021/09/13 07:13:20;;;;;;;7.70;4.78;;;;;;;;;;4992995;28;20104;-63
2021/09/13 07:15:47;;;;;;;6.93;5.40;;;;;;;;;;4993351;28;20050;-63
2021/09/13 07:18:14;;;;;;;5.97;5.28;;;;;;;;;;4993773;28;20046;-63
2021/09/13 07:20:41;;;;;;;4.82;4.40;;;;;;;;;;4993544;28;20112;-62
2021/09/13 07:23:07;;;;;;;7.18;5.00;;;;;;;;;;4993507;28;20493;-62
2021/09/13 07:25:34;;;;;;;6.35;4.75;;;;;;;;;;4993635;28;20053;-62
2021/09/13 07:28:01;;;;;;;5.88;5.28;;;;;;;;;;4993397;28;20058;-62
2021/09/13 07:30:27;;;;;;;5.57;5.07;;;;;;;;;;4993531;28;20097;-63
2021/09/13 07:32:54;;;;;;;5.53;4.90;;;;;;;;;;5029942;23;20124;-70
2021/09/13 07:35:21;;;;;;;6.45;5.00;;;;;;;;;;5013176;28;20054;-71
2021/09/13 07:37:47;;;;;;;7.65;4.57;;;;;;;;;;5013142;28;20058;-70
2021/09/13 07:40:15;;;;;;;4.57;4.18;;;;;;;;;;5013164;28;20050;-70
2021/09/13 07:42:41;;;;;;;5.93;4.88;;;;;;;;;;5012787;28;20054;-70
2021/09/13 07:45:09;;;;;;;5.85;4.40;;;;;;;;;;5012923;28;20057;-69
2021/09/13 07:47:35;;;;;;;8.13;4.40;;;;;;;;;;5013085;28;20122;-70
2021/09/13 07:50:03;;;;;;;5.10;4.68;;;;;;;;;;5012786;28;20046;-69
2021/09/13 07:52:30;;;;;;;6.05;4.88;;;;;;;;;;5012568;28;20049;-70
2021/09/13 07:54:56;;;;;;;7.20;4.57;;;;;;;;;;5012759;28;20092;-69
2021/09/13 07:57:24;;;;;;;4.70;4.20;;;;;;;;;;5012771;28;20058;-70
2021/09/13 07:59:50;;;;;;;8.50;5.03;;;;;;;;;;5012684;28;20046;-70
2021/09/13 08:02:17;;;;;;;5.30;4.45;;;;;;;;;;5012382;28;20500;-69
2021/09/13 08:04:44;;;;;;;6.15;5.05;;;;;;;;;;5012373;28;20140;-70
2021/09/13 08:07:11;;;;;;;8.73;5.13;;;;;;;;;;5012648;28;20108;-69
2021/09/13 08:09:37;;;;;;;5.10;4.60;;;;;;;;;;5012402;28;20050;-70
2021/09/13 08:12:04;;;;;;;5.38;4.88;;;;;;;;;;5012222;28;20081;-69
2021/09/13 08:14:31;;;;;;;6.68;4.88;;;;;;;;;;5012447;28;20049;-69
2021/09/13 08:16:57;;;;;;;7.53;4.72;;;;;;;;;;5012343;28;20081;-69
2021/09/13 08:19:24;;;;;;;4.72;3.92;;;;;;;;;;5012407;28;20545;-69
2021/09/13 08:21:50;;;;;;;4.90;4.40;;;;;;;;;;5012211;28;20053;-69
2021/09/13 08:24:17;;;;;;;4.63;4.20;;;;;;;;;;5012411;28;20046;-69
2021/09/13 08:26:44;;;;;;;5.10;3.75;;;;;;;;;;5012234;28;20127;-70
2021/09/13 08:29:14;;;;;;;4.20;3.80;;;;;;;;;;5012170;28;20104;-69
2021/09/13 08:31:42;;;;;;;5.80;5.18;;;;;;;;;;5012085;28;20053;-69
2021/09/13 08:34:09;;;;;;;5.47;4.60;;;;;;;;;;5012140;28;20069;-69
2021/09/13 08:36:35;;;;;;;4.97;3.70;;;;;;;;;;5012432;28;20045;-69
2021/09/13 08:39:03;;;;;;;3.88;3.50;;;;;;;;;;5012115;28;20057;-69
2021/09/13 08:41:32;;;;;;;8.98;4.20;;;;;;;;;;5011997;28;20401;-70
2021/09/13 08:44:00;;;;;;;4.05;3.65;;;;;;;;;;4994546;28;20133;-70
2021/09/13 08:46:38;;;;;;;7.38;3.63;;;;;;;;;;5012173;28;20057;-70
2021/09/13 08:49:10;;;;;;;6.07;3.50;;;;;;;;;;5011816;28;20100;-70
2021/09/13 08:51:37;;;;;;;5.68;3.88;;;;;;;;;;5011388;28;20054;-70
2021/09/13 08:54:09;;;;;;;3.65;3.35;;;;;;;;;;5011659;28;20058;-69
2021/09/13 08:56:43;;;;;;;5.47;3.10;;;;;;;;;;5012057;28;20076;-70
2021/09/13 08:59:14;;;;;;;3.30;2.90;;;;;;;;;;5011914;28;20490;-70
2021/09/13 09:01:42;;;;;;;3.47;2.47;;;;;;;;;;5011773;28;20443;-70
2021/09/13 09:04:12;;;;;;;3.05;2.72;;;;;;;;;;5012037;28;20131;-70
2021/09/13 09:06:43;;;;;;;5.10;3.60;;;;;;;;;;5011886;28;20054;-70
2021/09/13 09:09:15;;;;;;;3.88;2.90;;;;;;;;;;5011775;28;20076;-69
2021/09/13 09:12:01;;;;;;;4.43;2.80;;;;;;;;;;5011817;28;20076;-70
2021/09/13 09:14:27;;;;;;;4.50;3.40;;;;;;;;;;5011928;28;20046;-70
2021/09/13 09:16:59;;;;;;;3.78;3.30;;;;;;;;;;5015267;28;20053;-70
2021/09/13 09:19:26;;;;;;;3.78;3.30;;;;;;;;;;4998921;28;20096;-70
2021/09/13 09:21:52;;;;;;;5.03;3.20;;;;;;;;;;5015318;28;20057;-70
2021/09/13 09:24:19;;;;;;;3.25;2.95;;;;;;;;;;4998226;28;20108;-70
2021/09/13 09:27:01;;;;;;;6.00;3.22;;;;;;;;;;5015523;28;20054;-69
2021/09/13 09:29:29;;;;;;;3.38;3.08;;;;;;;;;;5015688;28;20089;-70
2021/09/13 09:32:00;;;;;;;4.60;3.10;;;;;;;;;;5015018;28;20073;-69
2021/09/13 09:34:29;;;;;;;3.08;2.67;;;;;;;;;;5015429;28;20049;-70
2021/09/13 09:36:59;;;;;;;3.17;2.83;;;;;;;;;;4998170;28;20077;-69
2021/09/13 09:39:29;;;;;;;3.30;2.47;;;;;;;;;;5015347;28;20045;-69
2021/09/13 09:41:57;;;;;;;3.53;2.55;;;;;;;;;;5014981;28;20099;-70
2021/09/13 09:44:24;;;;;;;2.97;2.58;;;;;;;;;;5015142;28;20050;-69
2021/09/13 09:46:53;;;;;;;3.58;2.40;;;;;;;;;;5015107;28;20563;-70
2021/09/13 09:49:21;;;;;;;2.92;2.70;;;;;;;;;;5015177;28;20107;-70
2021/09/13 09:51:53;;;;;;;3.95;2.60;;;;;;;;;;5014832;28;20058;-69
2021/09/13 09:54:21;;;;;;;5.50;2.67;;;;;;;;;;5015134;28;20104;-67
2021/09/13 09:56:57;;;;;;;4.75;2.30;;;;;;;;;;5015096;28;20104;-68
2021/09/13 09:59:24;;;;;;;4.72;2.80;;;;;;;;;;5015128;28;20508;-69
2021/09/13 10:01:57;;;;;;;6.50;3.15;;;;;;;;;;4997175;28;20050;-69
2021/09/13 10:04:27;;;;;;;3.00;2.70;;;;;;;;;;5014940;28;20145;-68
2021/09/13 10:06:56;;;;;;;3.17;2.80;;;;;;;;;;5014778;28;20042;-68
2021/09/13 10:09:24;;;;;;;3.22;2.60;;;;;;;;;;5014739;28;20042;-68
2021/09/13 10:11:52;;;;;;;2.78;2.50;;;;;;;;;;5014441;28;20050;-68
2021/09/13 10:14:22;;;;;;;2.13;2.00;;;;;;;;;;5014634;28;20057;-67
2021/09/13 10:16:49;;;;;;;7.25;2.70;;;;;;;;;;5014796;28;20100;-68
2021/09/13 10:19:18;;;;;;;2.92;2.72;;;;;;;;;;5014634;28;20050;-68
2021/09/13 10:21:44;;;;;;;4.05;3.28;;;;;;;;;;5014149;28;20528;-68
2021/09/13 10:24:17;;;;;;;3.67;2.80;;;;;;;;;;5014504;28;20108;-67
2021/09/13 10:26:49;;;;;;;6.80;2.70;;;;;;;;;;4980906;28;20050;-67
2021/09/13 10:29:26;;;;;;;2.70;2.50;;;;;;;;;;4997030;28;20050;-67
2021/09/13 10:31:53;;;;;;;3.22;2.47;;;;;;;;;;5013810;28;20562;-67
2021/09/13 10:34:22;;;;;;;4.22;2.83;;;;;;;;;;5014300;28;20083;-67
2021/09/13 10:37:20;;;;;;;4.70;3.30;;;;;;;;;;4997048;28;20056;-67
2021/09/13 10:39:48;;;;;;;4.10;3.00;;;;;;;;;;5014417;28;20104;-68
2021/09/13 10:42:27;;;;;;;4.15;3.10;;;;;;;;;;5013971;28;20103;-68
2021/09/13 10:45:09;;;;;;;4.20;3.70;;;;;;;;;;5014008;28;20471;-68
2021/09/13 10:47:38;;;;;;;5.03;3.25;;;;;;;;;;5014087;28;20046;-68
2021/09/13 10:50:24;;;;;;;3.95;2.70;;;;;;;;;;5013857;28;20096;-68
2021/09/13 10:52:54;;;;;;;4.68;2.80;;;;;;;;;;5013522;28;20046;-69
2021/09/13 10:55:30;;;;;;;3.40;2.45;;;;;;;;;;5013977;28;20578;-68
2021/09/13 10:58:13;;;;;;;4.75;2.67;;;;;;;;;;4996848;28;20054;-68
2021/09/13 11:00:40;;;;;;;3.75;2.78;;;;;;;;;;5014020;28;20046;-68
2021/09/13 11:03:22;;;;;;;4.28;3.60;;;;;;;;;;5013434;28;20077;-68
2021/09/13 11:06:02;;;;;;;;;;;;;;;;;;5014017;28;20060;-68
2021/09/13 11:08:29;;;;;;;2.97;2.67;;;;;;;;;;5013819;28;20377;-68
2021/09/13 11:10:56;;;;;;;2.85;2.65;;;;;;;;;;5013445;28;20045;-68
2021/09/13 11:13:23;;;;;;;4.05;2.70;;;;;;;;;;5013351;28;20053;-68
2021/09/13 11:15:50;;;;;;;3.63;2.75;;;;;;;;;;5013405;28;20119;-69
2021/09/13 11:18:56;;;;;;;4.32;3.00;;;;;;;;;;5013597;28;20050;-67
2021/09/13 11:21:27;;;;;;;6.72;3.42;;;;;;;;;;4914749;29;20103;-68
2021/09/13 11:24:01;;;;;;;4.00;3.33;;;;;;;;;;4998670;28;20049;-69
2021/09/13 11:26:32;;;;;;;4.18;2.92;;;;;;;;;;5013472;28;20052;-68
2021/09/13 11:29:00;;;;;;;5.70;2.85;;;;;;;;;;5013226;28;20519;-68
2021/09/13 11:31:37;;;;;;;2.72;2.53;;;;;;;;;;5013153;28;20053;-68
2021/09/13 11:34:25;;;;;;;2.90;2.70;;;;;;;;;;5012969;28;20049;-68
2021/09/13 11:36:54;;;;;;;3.40;3.10;;;;;;;;;;5012964;28;20049;-69
2021/09/13 11:39:21;;;;;;;3.45;2.80;;;;;;;;;;5012737;28;20467;-68
2021/09/13 11:42:04;;;;;;;10.10;2.95;;;;;;;;;;5012821;28;20104;-67
2021/09/13 11:44:39;;;;;;;4.45;3.22;;;;;;;;;;5013061;28;20456;-68
2021/09/13 11:47:07;;;;;;;3.35;2.50;;;;;;;;;;5012973;28;20057;-68
2021/09/13 11:49:36;;;;;;;2.97;2.53;;;;;;;;;;5012823;28;20452;-67
2021/09/13 11:52:27;;;;;;;2.83;2.63;;;;;;;;;;5012551;28;20570;-69
2021/09/13 11:55:15;;;;;;;3.33;2.72;;;;;;;;;;5012852;28;20053;-67
2021/09/13 11:57:43;;;;;;;4.28;2.92;;;;;;;;;;5012840;28;20054;-68
2021/09/13 12:00:26;;;;;;;2.58;2.35;;;;;;;;;;5012599;28;20050;-68
2021/09/13 12:02:55;;;;;;;2.38;2.25;;;;;;;;;;5012331;28;20496;-67
2021/09/13 12:05:33;;;;;;;3.38;2.65;;;;;;;;;;5012789;28;20115;-67
2021/09/13 12:08:01;;;;;;;3.08;2.30;;;;;;;;;;5012606;28;20060;-67
2021/09/13 12:10:30;;;;;;;2.50;2.30;;;;;;;;;;5012516;28;20042;-68
2021/09/13 12:13:09;;;;;;;3.38;2.60;;;;;;;;;;4994802;28;20054;-68
2021/09/13 12:15:35;;;;;;;2.88;2.60;;;;;;;;;;5012492;28;20057;-68
2021/09/13 12:18:04;;;;;;;2.95;2.30;;;;;;;;;;4994933;28;20133;-68
2021/09/13 12:20:38;;;;;;;3.00;2.70;;;;;;;;;;4995087;28;20096;-68
2021/09/13 12:23:07;;;;;;;2.50;2.30;;;;;;;;;;5012134;28;20054;-69
2021/09/13 12:25:50;;;;;;;3.35;2.58;;;;;;;;;;5012561;28;20057;-68
2021/09/13 12:28:21;;;;;;;2.50;2.30;;;;;;;;;;5012391;28;20050;-68
2021/09/13 12:30:53;;;;;;;3.75;2.30;;;;;;;;;;5012180;28;20116;-68
2021/09/13 12:33:21;;;;;;;2.35;2.00;;;;;;;;;;5011980;28;20055;-68
2021/09/13 12:35:51;;;;;;;3.67;2.03;;;;;;;;;;4994615;28;20050;-68
2021/09/13 12:38:21;;;;;;;2.30;2.10;;;;;;;;;;5012201;28;20049;-68
2021/09/13 12:41:01;;;;;;;3.33;2.55;;;;;;;;;;5012222;28;20077;-68
2021/09/13 12:43:32;;;;;;;2.47;2.28;;;;;;;;;;5011841;28;20056;-68
2021/09/13 12:46:11;;;;;;;2.78;2.40;;;;;;;;;;5012330;28;20500;-68
2021/09/13 12:48:40;;;;;;;2.88;2.08;;;;;;;;;;5011986;28;20571;-68
2021/09/13 12:51:14;;;;;;;2.75;2.17;;;;;;;;;;5011084;28;20050;-68
2021/09/13 12:54:03;;;;;;;2.45;2.25;;;;;;;;;;5011776;28;20100;-68
2021/09/13 12:56:32;;;;;;;2.50;2.30;;;;;;;;;;5011993;28;20501;-68
2021/09/13 12:59:09;;;;;;;3.28;2.42;;;;;;;;;;4994279;28;20046;-68
2021/09/13 13:01:38;;;;;;;3.03;2.72;;;;;;;;;;5011799;28;20050;-68
2021/09/13 13:04:10;;;;;;;2.42;2.22;;;;;;;;;;5011702;28;20096;-68
2021/09/13 13:06:38;;;;;;;2.83;2.50;;;;;;;;;;5011958;28;20501;-68
2021/09/13 13:09:08;;;;;;;3.35;2.30;;;;;;;;;;5011742;28;20049;-68
2021/09/13 13:11:35;;;;;;;2.53;2.33;;;;;;;;;;5011846;28;20057;-69
2021/09/13 13:14:02;;;;;;;3.70;1.95;;;;;;;;;;4994184;28;20054;-68
2021/09/13 13:16:38;;;;;;;5.72;2.40;;;;;;;;;;5011843;28;20050;-69
2021/09/13 13:19:10;;;;;;;4.53;2.45;;;;;;;;;;5011679;28;20573;-68
2021/09/13 13:21:40;;;;;;;1.95;1.70;;;;;;;;;;5011598;28;20046;-69
2021/09/13 13:24:09;;;;;;;2.00;1.80;;;;;;;;;;5011533;28;20353;-69
2021/09/13 13:26:36;;;;;;;2.35;2.10;;;;;;;;;;5011770;28;20108;-68
2021/09/13 13:29:04;;;;;;;1.92;1.83;;;;;;;;;;5011585;28;20485;-69
2021/09/13 13:31:30;;;;;;;1.92;1.83;;;;;;;;;;5011517;28;20045;-69
2021/09/13 13:33:57;;;;;;;2.60;2.20;;;;;;;;;;5062094;23;20388;-64
2021/09/13 13:36:24;;;;;;;2.33;2.00;;;;;;;;;;5051192;28;20049;-64
2021/09/13 13:38:51;;;;;;;3.10;2.30;;;;;;;;;;5033583;28;20049;-63
2021/09/13 13:41:18;;;;;;;2.58;2.13;;;;;;;;;;5051172;28;20052;-64
2021/09/13 13:43:44;;;;;;;3.05;2.08;;;;;;;;;;5050793;28;20060;-64
2021/09/13 13:46:11;;;;;;;3.35;2.30;;;;;;;;;;5051004;28;20057;-63
2021/09/13 13:48:38;;;;;;;2.88;2.53;;;;;;;;;;5050936;28;20495;-63
2021/09/13 13:51:04;;;;;;;2.28;2.15;;;;;;;;;;5050691;28;20446;-63
2021/09/13 13:53:31;;;;;;;2.47;2.28;;;;;;;;;;5050636;28;20102;-64
2021/09/13 13:55:58;;;;;;;2.63;1.88;;;;;;;;;;5051075;28;20064;-63
2021/09/13 13:58:25;;;;;;;3.75;2.30;;;;;;;;;;5033578;28;20045;-63
2021/09/13 14:00:55;;;;;;;2.00;1.90;;;;;;;;;;5050940;28;20076;-64
2021/09/13 14:03:22;;;;;;;2.78;2.08;;;;;;;;;;5036953;28;20071;-63
2021/09/13 14:05:49;;;;;;;2.55;2.35;;;;;;;;;;5054365;28;20554;-63
2021/09/13 14:08:16;;;;;;;4.78;3.08;;;;;;;;;;5054515;28;20056;-64
2021/09/13 14:10:42;;;;;;;4.50;3.03;;;;;;;;;;5054376;28;20069;-63
2021/09/13 14:13:09;;;;;;;2.92;2.17;;;;;;;;;;5054105;28;20553;-64
2021/09/13 14:15:36;;;;;;;2.50;2.30;;;;;;;;;;5054301;28;20056;-63
2021/09/13 14:18:03;;;;;;;3.35;2.25;;;;;;;;;;5054244;28;20064;-64
2021/09/13 14:20:30;;;;;;;4.68;2.63;;;;;;;;;;5054237;28;20414;-64
2021/09/13 14:22:57;;;;;;;2.28;2.08;;;;;;;;;;5053853;28;20495;-64
2021/09/13 14:25:23;;;;;;;3.30;2.45;;;;;;;;;;5054369;28;20048;-63
2021/09/13 14:27:50;;;;;;;3.92;2.20;;;;;;;;;;5053992;28;20049;-63
2021/09/13 14:30:16;;;;;;;2.67;2.47;;;;;;;;;;5054115;28;20058;-64
2021/09/13 14:32:43;;;;;;;2.40;2.20;;;;;;;;;;5053520;28;20499;-64
2021/09/13 14:35:10;;;;;;;2.58;2.20;;;;;;;;;;5053954;28;20045;-64
2021/09/13 14:37:36;;;;;;;4.88;2.58;;;;;;;;;;5053982;28;20056;-64
2021/09/13 14:40:04;;;;;;;2.70;2.50;;;;;;;;;;5053823;28;20495;-64
2021/09/13 14:42:31;;;;;;;6.05;2.63;;;;;;;;;;5053617;28;20131;-64
2021/09/13 14:44:57;;;;;;;2.17;1.98;;;;;;;;;;5053701;28;20056;-64
2021/09/13 14:47:24;;;;;;;3.40;2.55;;;;;;;;;;5053826;28;20053;-64
2021/09/13 14:49:50;;;;;;;3.83;2.00;;;;;;;;;;5053594;28;20098;-63
2021/09/13 14:52:21;;;;;;;4.00;2.88;;;;;;;;;;5053291;28;20099;-64
2021/09/13 14:54:48;;;;;;;8.10;2.88;;;;;;;;;;5035912;28;20044;-64
2021/09/13 14:57:14;;;;;;;3.70;2.67;;;;;;;;;;5053562;28;20049;-64